sensor_id;sensor_type;location;lat;lon;timestamp;temperature;humidity
19941;DHT22;10132;50.864;5.176;2022-08-19T00:00:21;18.70;99.90
19941;DHT22;10132;50.864;5.176;2022-08-19T00:02:25;18.80;99.90
19941;DHT22;10132;50.864;5.176;2022-08-19T00:04:29;18.80;99.90
19941;DHT22;10132;50.864;5.176;2022-08-19T00:06:31;18.70;99.90
19941;DHT22;10132;50.864;5.176;2022-08-19T00:08:34;18.50;99.90
19941;DHT22;10132;50.864;5.176;2022-08-19T00:10:37;18.50;99.90
19941;DHT22;10132;50.864;5.176;2022-08-19T00:12:40;18.40;99.90
19941;DHT22;10132;50.864;5.176;2022-08-19T00:14:42;18.30;99.90
19941;DHT22;10132;50.864;5.176;2022-08-19T00:16:45;18.30;99.90
19941;DHT22;10132;50.864;5.176;2022-08-19T00:18:48;18.40;99.90
19941;DHT22;10132;50.864;5.176;2022-08-19T00:20:50;18.40;99.90
19941;DHT22;10132;50.864;5.176;2022-08-19T00:22:52;18.40;99.90
19941;DHT22;10132;50.864;5.176;2022-08-19T00:24:56;18.30;99.90
19941;DHT22;10132;50.864;5.176;2022-08-19T00:26:59;18.40;99.90
19941;DHT22;10132;50.864;5.176;2022-08-19T00:29:03;18.50;99.90
19941;DHT22;10132;50.864;5.176;2022-08-19T00:31:06;18.70;99.90
19941;DHT22;10132;50.864;5.176;2022-08-19T00:33:09;18.70;99.90
19941;DHT22;10132;50.864;5.176;2022-08-19T00:35:12;18.80;99.90
19941;DHT22;10132;50.864;5.176;2022-08-19T00:37:14;18.90;99.90
19941;DHT22;10132;50.864;5.176;2022-08-19T00:39:16;18.90;99.90
19941;DHT22;10132;50.864;5.176;2022-08-19T00:41:20;18.90;99.90
19941;DHT22;10132;50.864;5.176;2022-08-19T00:43:27;18.80;99.90
19941;DHT22;10132;50.864;5.176;2022-08-19T00:45:29;18.60;99.90
19941;DHT22;10132;50.864;5.176;2022-08-19T00:47:32;18.50;99.90
19941;DHT22;10132;50.864;5.176;2022-08-19T00:49:37;18.40;99.90
19941;DHT22;10132;50.864;5.176;2022-08-19T00:51:42;18.40;99.90
19941;DHT22;10132;50.864;5.176;2022-08-19T00:53:44;18.30;99.90
19941;DHT22;10132;50.864;5.176;2022-08-19T00:55:48;18.30;99.90
19941;DHT22;10132;50.864;5.176;2022-08-19T00:57:54;18.30;99.90
19941;DHT22;10132;50.864;5.176;2022-08-19T00:59:59;18.30;99.90
19941;DHT22;10132;50.864;5.176;2022-08-19T01:02:03;18.40;99.90
19941;DHT22;10132;50.864;5.176;2022-08-19T01:04:06;18.40;99.90
19941;DHT22;10132;50.864;5.176;2022-08-19T01:06:08;18.50;99.90
19941;DHT22;10132;50.864;5.176;2022-08-19T01:08:11;18.50;99.90
19941;DHT22;10132;50.864;5.176;2022-08-19T01:10:16;18.50;99.90
19941;DHT22;10132;50.864;5.176;2022-08-19T01:12:19;18.50;99.90
19941;DHT22;10132;50.864;5.176;2022-08-19T01:14:23;18.60;99.90
19941;DHT22;10132;50.864;5.176;2022-08-19T01:16:28;18.70;99.90
19941;DHT22;10132;50.864;5.176;2022-08-19T01:18:32;18.80;99.90
19941;DHT22;10132;50.864;5.176;2022-08-19T01:20:39;18.70;99.90
19941;DHT22;10132;50.864;5.176;2022-08-19T01:22:46;18.80;99.90
19941;DHT22;10132;50.864;5.176;2022-08-19T01:24:50;18.90;99.90
19941;DHT22;10132;50.864;5.176;2022-08-19T01:26:52;18.90;99.90
19941;DHT22;10132;50.864;5.176;2022-08-19T01:28:57;18.90;99.90
19941;DHT22;10132;50.864;5.176;2022-08-19T01:30:59;18.80;99.90
19941;DHT22;10132;50.864;5.176;2022-08-19T01:33:01;18.70;99.90
19941;DHT22;10132;50.864;5.176;2022-08-19T01:35:06;18.80;99.90
19941;DHT22;10132;50.864;5.176;2022-08-19T01:37:11;18.80;99.90
19941;DHT22;10132;50.864;5.176;2022-08-19T01:39:17;18.80;99.90
19941;DHT22;10132;50.864;5.176;2022-08-19T01:41:21;18.70;99.90
19941;DHT22;10132;50.864;5.176;2022-08-19T01:43:23;18.60;99.90
19941;DHT22;10132;50.864;5.176;2022-08-19T01:45:27;18.50;99.90
19941;DHT22;10132;50.864;5.176;2022-08-19T01:47:30;18.40;99.90
19941;DHT22;10132;50.864;5.176;2022-08-19T01:49:32;18.20;99.90
19941;DHT22;10132;50.864;5.176;2022-08-19T01:51:34;18.00;99.90
19941;DHT22;10132;50.864;5.176;2022-08-19T01:53:37;17.80;99.90
19941;DHT22;10132;50.864;5.176;2022-08-19T01:55:42;17.70;99.90
19941;DHT22;10132;50.864;5.176;2022-08-19T01:57:47;17.60;99.90
19941;DHT22;10132;50.864;5.176;2022-08-19T01:59:51;17.60;99.90
19941;DHT22;10132;50.864;5.176;2022-08-19T02:01:54;17.60;99.90
19941;DHT22;10132;50.864;5.176;2022-08-19T02:03:56;17.60;99.90
19941;DHT22;10132;50.864;5.176;2022-08-19T02:06:01;17.60;99.90
19941;DHT22;10132;50.864;5.176;2022-08-19T02:08:04;17.50;99.90
19941;DHT22;10132;50.864;5.176;2022-08-19T02:10:09;17.60;99.90
19941;DHT22;10132;50.864;5.176;2022-08-19T02:12:13;17.70;99.90
19941;DHT22;10132;50.864;5.176;2022-08-19T02:14:16;17.70;99.90
19941;DHT22;10132;50.864;5.176;2022-08-19T02:16:19;17.70;99.90
19941;DHT22;10132;50.864;5.176;2022-08-19T02:18:21;17.60;99.90
19941;DHT22;10132;50.864;5.176;2022-08-19T02:20:24;17.60;99.90
19941;DHT22;10132;50.864;5.176;2022-08-19T02:22:26;17.60;99.90
19941;DHT22;10132;50.864;5.176;2022-08-19T02:24:28;17.50;99.90
19941;DHT22;10132;50.864;5.176;2022-08-19T02:26:31;17.40;99.90
19941;DHT22;10132;50.864;5.176;2022-08-19T02:28:35;17.30;99.90
19941;DHT22;10132;50.864;5.176;2022-08-19T02:30:37;17.20;99.90
19941;DHT22;10132;50.864;5.176;2022-08-19T02:32:40;17.20;99.90
19941;DHT22;10132;50.864;5.176;2022-08-19T02:34:42;17.20;99.90
19941;DHT22;10132;50.864;5.176;2022-08-19T02:36:45;17.20;99.90
19941;DHT22;10132;50.864;5.176;2022-08-19T02:38:47;17.20;99.90
19941;DHT22;10132;50.864;5.176;2022-08-19T02:40:49;17.10;99.90
19941;DHT22;10132;50.864;5.176;2022-08-19T02:42:53;17.00;99.90
19941;DHT22;10132;50.864;5.176;2022-08-19T02:44:57;17.00;99.90
19941;DHT22;10132;50.864;5.176;2022-08-19T02:46:59;17.00;99.90
19941;DHT22;10132;50.864;5.176;2022-08-19T02:49:03;17.10;99.90
19941;DHT22;10132;50.864;5.176;2022-08-19T02:51:06;17.10;99.90
19941;DHT22;10132;50.864;5.176;2022-08-19T02:53:09;17.10;99.90
19941;DHT22;10132;50.864;5.176;2022-08-19T02:55:11;17.10;99.90
19941;DHT22;10132;50.864;5.176;2022-08-19T02:57:13;17.10;99.90
19941;DHT22;10132;50.864;5.176;2022-08-19T02:59:15;17.00;99.90
19941;DHT22;10132;50.864;5.176;2022-08-19T03:01:23;17.10;99.90
19941;DHT22;10132;50.864;5.176;2022-08-19T03:03:26;17.10;99.90
19941;DHT22;10132;50.864;5.176;2022-08-19T03:05:28;17.10;99.90
19941;DHT22;10132;50.864;5.176;2022-08-19T03:07:31;17.10;99.90
19941;DHT22;10132;50.864;5.176;2022-08-19T03:09:33;17.10;99.90
19941;DHT22;10132;50.864;5.176;2022-08-19T03:11:38;17.10;99.90
19941;DHT22;10132;50.864;5.176;2022-08-19T03:13:40;17.10;99.90
19941;DHT22;10132;50.864;5.176;2022-08-19T03:15:45;17.20;99.90
19941;DHT22;10132;50.864;5.176;2022-08-19T03:17:49;17.30;99.90
19941;DHT22;10132;50.864;5.176;2022-08-19T03:19:51;17.30;99.90
19941;DHT22;10132;50.864;5.176;2022-08-19T03:21:54;17.20;99.90
19941;DHT22;10132;50.864;5.176;2022-08-19T03:23:57;17.20;99.90
19941;DHT22;10132;50.864;5.176;2022-08-19T03:26:03;17.10;99.90
19941;DHT22;10132;50.864;5.176;2022-08-19T03:28:06;17.00;99.90
19941;DHT22;10132;50.864;5.176;2022-08-19T03:30:10;16.90;99.90
19941;DHT22;10132;50.864;5.176;2022-08-19T03:32:12;16.70;99.90
19941;DHT22;10132;50.864;5.176;2022-08-19T03:34:21;16.70;99.90
19941;DHT22;10132;50.864;5.176;2022-08-19T03:36:25;16.60;99.90
19941;DHT22;10132;50.864;5.176;2022-08-19T03:38:28;16.60;99.90
19941;DHT22;10132;50.864;5.176;2022-08-19T03:40:30;16.50;99.90
19941;DHT22;10132;50.864;5.176;2022-08-19T03:42:32;16.50;99.90
19941;DHT22;10132;50.864;5.176;2022-08-19T03:44:34;16.40;99.90
19941;DHT22;10132;50.864;5.176;2022-08-19T03:46:38;16.40;99.90
19941;DHT22;10132;50.864;5.176;2022-08-19T03:48:41;16.30;99.90
19941;DHT22;10132;50.864;5.176;2022-08-19T03:50:45;16.30;99.90
19941;DHT22;10132;50.864;5.176;2022-08-19T03:52:49;16.30;99.90
19941;DHT22;10132;50.864;5.176;2022-08-19T03:54:52;16.30;99.90
19941;DHT22;10132;50.864;5.176;2022-08-19T03:56:55;16.30;99.90
19941;DHT22;10132;50.864;5.176;2022-08-19T03:58:58;16.30;99.90
19941;DHT22;10132;50.864;5.176;2022-08-19T04:01:00;16.20;99.90
19941;DHT22;10132;50.864;5.176;2022-08-19T04:03:03;16.20;99.90
19941;DHT22;10132;50.864;5.176;2022-08-19T04:05:06;16.20;99.90
19941;DHT22;10132;50.864;5.176;2022-08-19T04:07:12;16.10;99.90
19941;DHT22;10132;50.864;5.176;2022-08-19T04:09:16;16.10;99.90
19941;DHT22;10132;50.864;5.176;2022-08-19T04:11:20;16.10;99.90
19941;DHT22;10132;50.864;5.176;2022-08-19T04:13:22;16.10;99.90
19941;DHT22;10132;50.864;5.176;2022-08-19T04:15:24;16.10;99.90
19941;DHT22;10132;50.864;5.176;2022-08-19T04:17:26;16.10;99.90
19941;DHT22;10132;50.864;5.176;2022-08-19T04:19:29;16.10;99.90
19941;DHT22;10132;50.864;5.176;2022-08-19T04:21:33;16.20;99.90
19941;DHT22;10132;50.864;5.176;2022-08-19T04:23:37;16.20;99.90
19941;DHT22;10132;50.864;5.176;2022-08-19T04:25:43;16.20;99.90
19941;DHT22;10132;50.864;5.176;2022-08-19T04:27:45;16.20;99.90
19941;DHT22;10132;50.864;5.176;2022-08-19T04:29:48;16.20;99.90
19941;DHT22;10132;50.864;5.176;2022-08-19T04:31:51;16.20;99.90
19941;DHT22;10132;50.864;5.176;2022-08-19T04:33:54;16.20;99.90
19941;DHT22;10132;50.864;5.176;2022-08-19T04:35:57;16.20;99.90
19941;DHT22;10132;50.864;5.176;2022-08-19T04:38:00;16.20;99.90
19941;DHT22;10132;50.864;5.176;2022-08-19T04:40:07;16.30;99.90
19941;DHT22;10132;50.864;5.176;2022-08-19T04:42:26;16.30;99.90
19941;DHT22;10132;50.864;5.176;2022-08-19T04:44:40;16.30;99.90
19941;DHT22;10132;50.864;5.176;2022-08-19T04:46:42;16.20;99.90
19941;DHT22;10132;50.864;5.176;2022-08-19T04:48:45;16.40;99.90
19941;DHT22;10132;50.864;5.176;2022-08-19T04:50:47;16.50;99.90
19941;DHT22;10132;50.864;5.176;2022-08-19T04:52:50;16.60;99.90
19941;DHT22;10132;50.864;5.176;2022-08-19T04:54:53;16.70;99.90
19941;DHT22;10132;50.864;5.176;2022-08-19T04:56:57;16.90;99.90
19941;DHT22;10132;50.864;5.176;2022-08-19T04:58:59;17.00;99.90
19941;DHT22;10132;50.864;5.176;2022-08-19T05:01:04;17.10;99.90
19941;DHT22;10132;50.864;5.176;2022-08-19T05:03:06;17.10;99.90
19941;DHT22;10132;50.864;5.176;2022-08-19T05:05:08;17.00;99.90
19941;DHT22;10132;50.864;5.176;2022-08-19T05:07:10;17.00;99.90
19941;DHT22;10132;50.864;5.176;2022-08-19T05:09:13;17.00;99.90
19941;DHT22;10132;50.864;5.176;2022-08-19T05:11:18;17.10;99.90
19941;DHT22;10132;50.864;5.176;2022-08-19T05:13:22;17.10;99.90
19941;DHT22;10132;50.864;5.176;2022-08-19T05:15:25;17.20;99.90
19941;DHT22;10132;50.864;5.176;2022-08-19T05:17:27;17.20;99.90
19941;DHT22;10132;50.864;5.176;2022-08-19T05:19:30;17.20;99.90
19941;DHT22;10132;50.864;5.176;2022-08-19T05:21:49;17.20;99.90
19941;DHT22;10132;50.864;5.176;2022-08-19T05:24:09;17.20;99.90
19941;DHT22;10132;50.864;5.176;2022-08-19T05:26:11;17.40;99.90
19941;DHT22;10132;50.864;5.176;2022-08-19T05:28:13;17.40;99.90
19941;DHT22;10132;50.864;5.176;2022-08-19T05:30:17;17.30;99.90
19941;DHT22;10132;50.864;5.176;2022-08-19T05:32:20;17.40;99.90
19941;DHT22;10132;50.864;5.176;2022-08-19T05:34:24;17.40;99.90
19941;DHT22;10132;50.864;5.176;2022-08-19T05:36:28;17.50;99.90
19941;DHT22;10132;50.864;5.176;2022-08-19T05:38:31;17.40;99.90
19941;DHT22;10132;50.864;5.176;2022-08-19T05:40:34;17.40;99.90
19941;DHT22;10132;50.864;5.176;2022-08-19T05:42:38;17.50;99.90
19941;DHT22;10132;50.864;5.176;2022-08-19T05:44:42;17.40;99.90
19941;DHT22;10132;50.864;5.176;2022-08-19T05:46:46;17.40;99.90
19941;DHT22;10132;50.864;5.176;2022-08-19T05:48:48;17.30;99.90
19941;DHT22;10132;50.864;5.176;2022-08-19T05:50:51;17.30;99.90
19941;DHT22;10132;50.864;5.176;2022-08-19T05:52:53;17.40;99.90
19941;DHT22;10132;50.864;5.176;2022-08-19T05:54:55;17.40;99.90
19941;DHT22;10132;50.864;5.176;2022-08-19T05:56:57;17.40;99.90
19941;DHT22;10132;50.864;5.176;2022-08-19T05:58:59;17.40;99.90
19941;DHT22;10132;50.864;5.176;2022-08-19T06:01:01;17.40;99.90
19941;DHT22;10132;50.864;5.176;2022-08-19T06:03:07;17.40;99.90
19941;DHT22;10132;50.864;5.176;2022-08-19T06:05:10;17.50;99.90
19941;DHT22;10132;50.864;5.176;2022-08-19T06:07:12;17.40;99.90
19941;DHT22;10132;50.864;5.176;2022-08-19T06:09:15;17.50;99.90
19941;DHT22;10132;50.864;5.176;2022-08-19T06:11:20;17.60;99.90
19941;DHT22;10132;50.864;5.176;2022-08-19T06:13:22;17.60;99.90
19941;DHT22;10132;50.864;5.176;2022-08-19T06:15:26;17.50;99.90
19941;DHT22;10132;50.864;5.176;2022-08-19T06:17:29;17.70;99.90
19941;DHT22;10132;50.864;5.176;2022-08-19T06:19:33;17.60;99.90
19941;DHT22;10132;50.864;5.176;2022-08-19T06:21:37;17.60;99.90
19941;DHT22;10132;50.864;5.176;2022-08-19T06:23:39;17.60;99.90
19941;DHT22;10132;50.864;5.176;2022-08-19T06:25:41;17.70;99.90
19941;DHT22;10132;50.864;5.176;2022-08-19T06:27:44;17.50;99.90
19941;DHT22;10132;50.864;5.176;2022-08-19T06:29:47;17.50;99.90
19941;DHT22;10132;50.864;5.176;2022-08-19T06:31:52;17.60;99.90
19941;DHT22;10132;50.864;5.176;2022-08-19T06:33:54;17.80;99.90
19941;DHT22;10132;50.864;5.176;2022-08-19T06:36:00;18.00;99.90
19941;DHT22;10132;50.864;5.176;2022-08-19T06:38:02;18.30;99.90
19941;DHT22;10132;50.864;5.176;2022-08-19T06:40:06;18.50;99.90
19941;DHT22;10132;50.864;5.176;2022-08-19T06:42:10;18.70;99.90
19941;DHT22;10132;50.864;5.176;2022-08-19T06:44:16;18.60;99.90
19941;DHT22;10132;50.864;5.176;2022-08-19T06:46:19;18.70;99.90
19941;DHT22;10132;50.864;5.176;2022-08-19T06:48:21;18.80;99.90
19941;DHT22;10132;50.864;5.176;2022-08-19T06:50:23;18.90;99.90
19941;DHT22;10132;50.864;5.176;2022-08-19T06:52:27;19.00;99.90
19941;DHT22;10132;50.864;5.176;2022-08-19T06:54:29;19.20;99.90
19941;DHT22;10132;50.864;5.176;2022-08-19T06:56:32;19.00;99.90
19941;DHT22;10132;50.864;5.176;2022-08-19T06:58:35;18.30;99.90
19941;DHT22;10132;50.864;5.176;2022-08-19T07:00:39;18.40;99.90
19941;DHT22;10132;50.864;5.176;2022-08-19T07:02:42;18.40;99.90
19941;DHT22;10132;50.864;5.176;2022-08-19T07:04:45;18.30;99.90
19941;DHT22;10132;50.864;5.176;2022-08-19T07:06:47;18.20;99.90
19941;DHT22;10132;50.864;5.176;2022-08-19T07:08:51;18.40;99.90
19941;DHT22;10132;50.864;5.176;2022-08-19T07:10:53;18.60;99.90
19941;DHT22;10132;50.864;5.176;2022-08-19T07:12:55;18.60;99.90
19941;DHT22;10132;50.864;5.176;2022-08-19T07:14:58;18.60;99.90
19941;DHT22;10132;50.864;5.176;2022-08-19T07:17:03;18.70;99.90
19941;DHT22;10132;50.864;5.176;2022-08-19T07:19:06;18.70;99.90
19941;DHT22;10132;50.864;5.176;2022-08-19T07:21:11;18.40;99.90
19941;DHT22;10132;50.864;5.176;2022-08-19T07:23:13;18.50;99.90
19941;DHT22;10132;50.864;5.176;2022-08-19T07:25:17;18.70;99.90
19941;DHT22;10132;50.864;5.176;2022-08-19T07:27:21;18.60;99.90
19941;DHT22;10132;50.864;5.176;2022-08-19T07:29:23;18.40;99.90
19941;DHT22;10132;50.864;5.176;2022-08-19T07:31:26;18.50;99.90
19941;DHT22;10132;50.864;5.176;2022-08-19T07:33:29;18.60;99.90
19941;DHT22;10132;50.864;5.176;2022-08-19T07:35:33;18.80;99.90
19941;DHT22;10132;50.864;5.176;2022-08-19T07:37:35;19.10;99.90
19941;DHT22;10132;50.864;5.176;2022-08-19T07:39:38;19.20;99.90
19941;DHT22;10132;50.864;5.176;2022-08-19T07:41:42;19.10;99.90
19941;DHT22;10132;50.864;5.176;2022-08-19T07:43:44;18.90;99.90
19941;DHT22;10132;50.864;5.176;2022-08-19T07:45:47;19.10;99.90
19941;DHT22;10132;50.864;5.176;2022-08-19T07:47:49;19.40;99.90
19941;DHT22;10132;50.864;5.176;2022-08-19T07:49:51;19.30;99.90
19941;DHT22;10132;50.864;5.176;2022-08-19T07:51:56;19.40;99.90
19941;DHT22;10132;50.864;5.176;2022-08-19T07:53:58;19.50;99.90
19941;DHT22;10132;50.864;5.176;2022-08-19T07:56:01;19.60;99.90
19941;DHT22;10132;50.864;5.176;2022-08-19T07:58:06;19.70;99.90
19941;DHT22;10132;50.864;5.176;2022-08-19T08:00:09;20.00;99.90
19941;DHT22;10132;50.864;5.176;2022-08-19T08:02:11;20.00;99.90
19941;DHT22;10132;50.864;5.176;2022-08-19T08:04:14;20.10;99.90
19941;DHT22;10132;50.864;5.176;2022-08-19T08:06:33;20.30;99.90
19941;DHT22;10132;50.864;5.176;2022-08-19T08:08:53;20.40;99.90
19941;DHT22;10132;50.864;5.176;2022-08-19T08:11:17;20.60;99.90
19941;DHT22;10132;50.864;5.176;2022-08-19T08:13:22;20.60;99.90
19941;DHT22;10132;50.864;5.176;2022-08-19T08:15:24;20.50;99.90
19941;DHT22;10132;50.864;5.176;2022-08-19T08:17:27;20.00;99.90
19941;DHT22;10132;50.864;5.176;2022-08-19T08:19:30;19.90;99.90
19941;DHT22;10132;50.864;5.176;2022-08-19T08:21:32;20.20;99.90
19941;DHT22;10132;50.864;5.176;2022-08-19T08:23:34;20.40;99.90
19941;DHT22;10132;50.864;5.176;2022-08-19T08:25:38;20.30;99.90
19941;DHT22;10132;50.864;5.176;2022-08-19T08:27:41;20.20;99.90
19941;DHT22;10132;50.864;5.176;2022-08-19T08:29:45;20.20;99.90
19941;DHT22;10132;50.864;5.176;2022-08-19T08:31:49;20.30;99.90
19941;DHT22;10132;50.864;5.176;2022-08-19T08:33:52;20.30;99.90
19941;DHT22;10132;50.864;5.176;2022-08-19T08:35:54;20.30;99.90
19941;DHT22;10132;50.864;5.176;2022-08-19T08:37:56;20.30;99.90
19941;DHT22;10132;50.864;5.176;2022-08-19T08:39:58;20.50;99.90
19941;DHT22;10132;50.864;5.176;2022-08-19T08:42:07;20.80;99.90
19941;DHT22;10132;50.864;5.176;2022-08-19T08:44:17;21.50;99.90
19941;DHT22;10132;50.864;5.176;2022-08-19T08:46:26;21.90;99.90
19941;DHT22;10132;50.864;5.176;2022-08-19T08:48:38;21.80;99.90
19941;DHT22;10132;50.864;5.176;2022-08-19T08:50:43;21.60;99.90
19941;DHT22;10132;50.864;5.176;2022-08-19T08:52:52;21.80;99.90
19941;DHT22;10132;50.864;5.176;2022-08-19T08:54:58;22.20;99.90
19941;DHT22;10132;50.864;5.176;2022-08-19T08:57:05;22.30;99.90
19941;DHT22;10132;50.864;5.176;2022-08-19T08:59:16;22.60;99.90
19941;DHT22;10132;50.864;5.176;2022-08-19T09:01:23;22.20;99.90
19941;DHT22;10132;50.864;5.176;2022-08-19T09:03:27;22.40;99.90
19941;DHT22;10132;50.864;5.176;2022-08-19T09:05:37;22.50;99.90
19941;DHT22;10132;50.864;5.176;2022-08-19T09:07:47;22.40;99.90
19941;DHT22;10132;50.864;5.176;2022-08-19T09:09:52;22.30;99.90
19941;DHT22;10132;50.864;5.176;2022-08-19T09:12:06;22.20;99.90
19941;DHT22;10132;50.864;5.176;2022-08-19T09:14:20;22.40;99.90
19941;DHT22;10132;50.864;5.176;2022-08-19T09:16:27;22.50;99.90
19941;DHT22;10132;50.864;5.176;2022-08-19T09:18:39;22.80;99.90
19941;DHT22;10132;50.864;5.176;2022-08-19T09:20:42;23.10;99.90
19941;DHT22;10132;50.864;5.176;2022-08-19T09:22:44;23.60;99.90
19941;DHT22;10132;50.864;5.176;2022-08-19T09:24:47;23.90;99.90
19941;DHT22;10132;50.864;5.176;2022-08-19T09:26:49;23.80;99.90
19941;DHT22;10132;50.864;5.176;2022-08-19T09:28:52;23.80;99.90
19941;DHT22;10132;50.864;5.176;2022-08-19T09:30:56;23.60;99.90
19941;DHT22;10132;50.864;5.176;2022-08-19T09:33:00;23.50;99.90
19941;DHT22;10132;50.864;5.176;2022-08-19T09:35:02;23.30;99.90
19941;DHT22;10132;50.864;5.176;2022-08-19T09:37:07;23.60;99.90
19941;DHT22;10132;50.864;5.176;2022-08-19T09:39:09;23.30;99.90
19941;DHT22;10132;50.864;5.176;2022-08-19T09:41:13;23.30;99.90
19941;DHT22;10132;50.864;5.176;2022-08-19T09:43:15;23.30;99.90
19941;DHT22;10132;50.864;5.176;2022-08-19T09:45:19;23.10;99.90
19941;DHT22;10132;50.864;5.176;2022-08-19T09:47:22;23.40;99.90
19941;DHT22;10132;50.864;5.176;2022-08-19T09:49:26;23.50;99.90
19941;DHT22;10132;50.864;5.176;2022-08-19T09:51:28;23.30;99.90
19941;DHT22;10132;50.864;5.176;2022-08-19T09:53:30;23.30;99.90
19941;DHT22;10132;50.864;5.176;2022-08-19T09:55:32;23.70;99.90
19941;DHT22;10132;50.864;5.176;2022-08-19T09:57:36;23.90;99.90
19941;DHT22;10132;50.864;5.176;2022-08-19T09:59:39;24.10;99.90
19941;DHT22;10132;50.864;5.176;2022-08-19T10:01:41;23.70;99.90
19941;DHT22;10132;50.864;5.176;2022-08-19T10:03:43;23.30;99.90
19941;DHT22;10132;50.864;5.176;2022-08-19T10:05:46;23.40;99.90
19941;DHT22;10132;50.864;5.176;2022-08-19T10:07:51;23.60;99.90
19941;DHT22;10132;50.864;5.176;2022-08-19T10:09:53;23.70;99.90
19941;DHT22;10132;50.864;5.176;2022-08-19T10:11:55;23.80;99.90
19941;DHT22;10132;50.864;5.176;2022-08-19T10:13:57;23.80;99.90
19941;DHT22;10132;50.864;5.176;2022-08-19T10:16:04;23.80;99.90
19941;DHT22;10132;50.864;5.176;2022-08-19T10:18:07;23.70;99.90
19941;DHT22;10132;50.864;5.176;2022-08-19T10:20:10;23.80;99.90
19941;DHT22;10132;50.864;5.176;2022-08-19T10:22:14;24.00;99.90
19941;DHT22;10132;50.864;5.176;2022-08-19T10:24:16;23.80;99.90
19941;DHT22;10132;50.864;5.176;2022-08-19T10:26:21;23.40;99.90
19941;DHT22;10132;50.864;5.176;2022-08-19T10:28:24;23.50;99.90
19941;DHT22;10132;50.864;5.176;2022-08-19T10:30:26;23.90;99.90
19941;DHT22;10132;50.864;5.176;2022-08-19T10:32:29;24.10;99.90
19941;DHT22;10132;50.864;5.176;2022-08-19T10:34:33;24.20;99.90
19941;DHT22;10132;50.864;5.176;2022-08-19T10:36:37;24.00;99.90
19941;DHT22;10132;50.864;5.176;2022-08-19T10:38:41;24.30;99.90
19941;DHT22;10132;50.864;5.176;2022-08-19T10:40:45;24.30;99.90
19941;DHT22;10132;50.864;5.176;2022-08-19T10:42:47;24.10;99.90
19941;DHT22;10132;50.864;5.176;2022-08-19T10:44:49;23.70;99.90
19941;DHT22;10132;50.864;5.176;2022-08-19T10:46:51;23.80;99.90
19941;DHT22;10132;50.864;5.176;2022-08-19T10:48:54;24.30;99.90
19941;DHT22;10132;50.864;5.176;2022-08-19T10:50:57;24.70;99.90
19941;DHT22;10132;50.864;5.176;2022-08-19T10:53:16;24.80;99.90
19941;DHT22;10132;50.864;5.176;2022-08-19T10:55:23;24.80;99.90
19941;DHT22;10132;50.864;5.176;2022-08-19T10:57:43;24.90;99.90
19941;DHT22;10132;50.864;5.176;2022-08-19T10:59:45;25.20;99.90
19941;DHT22;10132;50.864;5.176;2022-08-19T11:01:49;25.00;99.90
19941;DHT22;10132;50.864;5.176;2022-08-19T11:03:52;24.90;99.90
19941;DHT22;10132;50.864;5.176;2022-08-19T11:05:58;24.60;99.90
19941;DHT22;10132;50.864;5.176;2022-08-19T11:08:00;24.80;99.90
19941;DHT22;10132;50.864;5.176;2022-08-19T11:10:03;24.90;99.90
19941;DHT22;10132;50.864;5.176;2022-08-19T11:12:09;25.40;99.90
19941;DHT22;10132;50.864;5.176;2022-08-19T11:14:15;25.60;99.90
19941;DHT22;10132;50.864;5.176;2022-08-19T11:16:20;25.90;99.90
19941;DHT22;10132;50.864;5.176;2022-08-19T11:18:23;25.90;99.90
19941;DHT22;10132;50.864;5.176;2022-08-19T11:20:25;26.00;99.90
19941;DHT22;10132;50.864;5.176;2022-08-19T11:22:28;25.60;99.90
19941;DHT22;10132;50.864;5.176;2022-08-19T11:24:30;25.60;99.90
19941;DHT22;10132;50.864;5.176;2022-08-19T11:26:35;25.70;99.90
19941;DHT22;10132;50.864;5.176;2022-08-19T11:28:39;25.90;99.90
19941;DHT22;10132;50.864;5.176;2022-08-19T11:30:41;26.00;99.90
19941;DHT22;10132;50.864;5.176;2022-08-19T11:32:43;25.80;99.90
19941;DHT22;10132;50.864;5.176;2022-08-19T11:34:45;26.00;99.90
19941;DHT22;10132;50.864;5.176;2022-08-19T11:36:49;25.90;99.90
19941;DHT22;10132;50.864;5.176;2022-08-19T11:38:51;25.50;99.90
19941;DHT22;10132;50.864;5.176;2022-08-19T11:40:55;25.50;99.90
19941;DHT22;10132;50.864;5.176;2022-08-19T11:42:57;25.60;99.90
19941;DHT22;10132;50.864;5.176;2022-08-19T11:45:01;25.80;99.90
19941;DHT22;10132;50.864;5.176;2022-08-19T11:47:04;26.10;99.90
19941;DHT22;10132;50.864;5.176;2022-08-19T11:49:07;26.20;99.90
19941;DHT22;10132;50.864;5.176;2022-08-19T11:51:12;26.00;99.90
19941;DHT22;10132;50.864;5.176;2022-08-19T11:53:14;25.50;99.90
19941;DHT22;10132;50.864;5.176;2022-08-19T11:55:16;25.50;99.90
19941;DHT22;10132;50.864;5.176;2022-08-19T11:57:19;25.70;99.90
19941;DHT22;10132;50.864;5.176;2022-08-19T11:59:21;26.00;99.90
19941;DHT22;10132;50.864;5.176;2022-08-19T12:01:26;25.80;99.90
19941;DHT22;10132;50.864;5.176;2022-08-19T12:03:28;25.50;99.90
19941;DHT22;10132;50.864;5.176;2022-08-19T12:05:31;25.60;99.90
19941;DHT22;10132;50.864;5.176;2022-08-19T12:07:33;25.60;99.90
19941;DHT22;10132;50.864;5.176;2022-08-19T12:09:36;25.80;99.90
19941;DHT22;10132;50.864;5.176;2022-08-19T12:11:39;26.00;99.90
19941;DHT22;10132;50.864;5.176;2022-08-19T12:13:42;25.80;99.90
19941;DHT22;10132;50.864;5.176;2022-08-19T12:15:46;25.60;99.90
19941;DHT22;10132;50.864;5.176;2022-08-19T12:17:49;25.50;99.90
19941;DHT22;10132;50.864;5.176;2022-08-19T12:19:52;25.50;99.90
19941;DHT22;10132;50.864;5.176;2022-08-19T12:21:58;25.30;99.90
19941;DHT22;10132;50.864;5.176;2022-08-19T12:24:03;25.00;99.90
19941;DHT22;10132;50.864;5.176;2022-08-19T12:26:06;25.00;99.90
19941;DHT22;10132;50.864;5.176;2022-08-19T12:28:08;25.00;99.90
19941;DHT22;10132;50.864;5.176;2022-08-19T12:30:11;25.10;99.90
19941;DHT22;10132;50.864;5.176;2022-08-19T12:32:15;25.20;99.90
19941;DHT22;10132;50.864;5.176;2022-08-19T12:34:18;25.40;99.90
19941;DHT22;10132;50.864;5.176;2022-08-19T12:36:21;25.40;99.90
19941;DHT22;10132;50.864;5.176;2022-08-19T12:38:26;25.40;99.90
19941;DHT22;10132;50.864;5.176;2022-08-19T12:40:29;25.20;99.90
19941;DHT22;10132;50.864;5.176;2022-08-19T12:42:31;25.00;99.90
19941;DHT22;10132;50.864;5.176;2022-08-19T12:44:33;24.80;99.90
19941;DHT22;10132;50.864;5.176;2022-08-19T12:46:35;25.00;99.90
19941;DHT22;10132;50.864;5.176;2022-08-19T12:48:38;25.00;99.90
19941;DHT22;10132;50.864;5.176;2022-08-19T12:50:44;24.90;99.90
19941;DHT22;10132;50.864;5.176;2022-08-19T12:52:47;24.80;99.90
19941;DHT22;10132;50.864;5.176;2022-08-19T12:54:50;24.80;99.90
19941;DHT22;10132;50.864;5.176;2022-08-19T12:56:53;24.80;99.90
19941;DHT22;10132;50.864;5.176;2022-08-19T12:58:56;24.70;99.90
19941;DHT22;10132;50.864;5.176;2022-08-19T13:00:58;24.50;99.90